createdAt,value
2023-02-05T00:01:49.452Z,102516.84
2023-02-05T00:04:17.557Z,102483.16
2023-02-05T00:06:47.263Z,102473.28
2023-02-05T00:09:15.167Z,102386.94
2023-02-05T00:11:43.087Z,102495.75
2023-02-05T00:14:11.077Z,102493.94
2023-02-05T00:16:39.031Z,102469.81
2023-02-05T00:19:07.323Z,102497.91
2023-02-05T00:21:35.209Z,102452.97
2023-02-05T00:24:04.921Z,102482.03
2023-02-05T00:26:33.073Z,102476.69
2023-02-05T00:29:01.030Z,102481.84
2023-02-05T00:31:29.570Z,102460.88
2023-02-05T00:33:57.930Z,102465.34
2023-02-05T00:36:27.423Z,102460.28
2023-02-05T00:38:55.529Z,102477.16
2023-02-05T00:41:24.772Z,102462.22
2023-02-05T00:43:52.678Z,102456.31
2023-02-05T00:46:20.670Z,102222.03
2023-02-05T00:48:48.807Z,102445.91
2023-02-05T00:51:16.705Z,102453.03
2023-02-05T00:53:44.660Z,102445.94
2023-02-05T00:56:12.875Z,102449.34
2023-02-05T00:58:47.347Z,102440.44
2023-02-05T01:01:15.840Z,102447.47
2023-02-05T01:03:44.310Z,102442.31
2023-02-05T01:06:12.306Z,102353.34
2023-02-05T01:08:40.522Z,102433.53
2023-02-05T01:11:10.286Z,102432.94
2023-02-05T01:13:38.646Z,102426.72
2023-02-05T01:16:10.349Z,102424.25
2023-02-05T01:18:38.560Z,102415.34
2023-02-05T01:21:06.782Z,102369.47
2023-02-05T01:23:34.766Z,102400.25
2023-02-05T01:26:02.634Z,102395.19
2023-02-05T01:28:30.580Z,102321.84
2023-02-05T01:30:58.718Z,102395.00
2023-02-05T01:33:28.160Z,102392.50
2023-02-05T01:35:56.540Z,102398.75
2023-02-05T01:38:24.474Z,102394.41
2023-02-05T01:40:52.616Z,102401.00
2023-02-05T01:43:20.938Z,102349.63
2023-02-05T01:46:04.814Z,102379.69
2023-02-05T01:48:39.509Z,102247.91
2023-02-05T01:51:12.894Z,102364.03
2023-02-05T01:53:41.431Z,102347.25
2023-02-05T01:56:15.787Z,102379.34
2023-02-05T01:58:49.244Z,102347.38
2023-02-05T02:01:17.390Z,102350.38
2023-02-05T02:03:47.394Z,102337.72
2023-02-05T02:06:15.273Z,102357.50
2023-02-05T02:08:43.851Z,102360.84
2023-02-05T02:11:17.097Z,102359.50
2023-02-05T02:13:48.398Z,102321.25
2023-02-05T02:16:17.318Z,102354.19
2023-02-05T02:18:47.529Z,102360.16
2023-02-05T02:21:36.162Z,102352.44
2023-02-05T02:24:29.791Z,102345.50
2023-02-05T02:27:23.727Z,102311.28
2023-02-05T02:29:58.669Z,102341.69
2023-02-05T02:32:36.554Z,102334.50
2023-02-05T02:35:11.859Z,102331.59
2023-02-05T02:37:48.459Z,102285.38
2023-02-05T02:40:21.957Z,102292.19
2023-02-05T02:42:57.005Z,102297.25
2023-02-05T02:45:30.433Z,102251.16
2023-02-05T02:48:01.826Z,102291.09
2023-02-05T02:50:34.863Z,102323.19
2023-02-05T02:53:06.122Z,102312.88
2023-02-05T02:55:38.280Z,102335.47
2023-02-05T02:58:09.817Z,102339.28
2023-02-05T03:00:42.869Z,102314.84
2023-02-05T03:03:14.712Z,102290.97
2023-02-05T03:05:45.384Z,102335.38
2023-02-05T03:08:18.457Z,102293.06
2023-02-05T03:10:52.009Z,102332.88
2023-02-05T03:13:20.639Z,102325.63
2023-02-05T03:15:56.178Z,102323.66
2023-02-05T03:18:25.560Z,102317.06
2023-02-05T03:20:56.567Z,102324.38
2023-02-05T03:23:24.997Z,102331.56
2023-02-05T03:25:52.872Z,102331.78
2023-02-05T03:28:25.938Z,102337.66
2023-02-05T03:31:04.546Z,102294.41
2023-02-05T03:33:48.139Z,102294.41
2023-02-05T03:36:26.534Z,102332.53
2023-02-05T03:39:12.350Z,102306.47
2023-02-05T03:41:57.706Z,102281.50
2023-02-05T03:44:48.002Z,102304.78
2023-02-05T03:47:30.949Z,102301.16
2023-02-05T03:50:08.312Z,102263.38
2023-02-05T03:52:42.877Z,102299.16
2023-02-05T03:55:18.489Z,102288.31
2023-02-05T03:57:53.747Z,101934.72
2023-02-05T04:00:24.820Z,102284.78
2023-02-05T04:02:56.065Z,102220.44
2023-02-05T04:05:29.155Z,102279.06
2023-02-05T04:07:58.854Z,102284.41
2023-02-05T04:10:32.853Z,102290.31
2023-02-05T04:13:03.186Z,102274.59
2023-02-05T04:15:32.178Z,102291.00
2023-02-05T04:18:04.307Z,102103.81
2023-02-05T04:20:32.614Z,102267.00
2023-02-05T04:23:01.305Z,102273.47
2023-02-05T04:25:31.547Z,102310.91
2023-02-05T04:28:01.924Z,102273.31
2023-02-05T04:30:31.359Z,102302.19
2023-02-05T04:32:59.729Z,102300.94
2023-02-05T04:35:29.054Z,102262.13
2023-02-05T04:37:57.344Z,102300.53
2023-02-05T04:40:25.371Z,102209.09
2023-02-05T04:42:53.263Z,102297.78
2023-02-05T04:45:22.651Z,102277.06
2023-02-05T04:47:50.584Z,102282.81
2023-02-05T04:50:18.515Z,102279.53
2023-02-05T04:52:47.810Z,102273.34
2023-02-05T04:55:16.136Z,102235.88
2023-02-05T04:57:43.976Z,102165.47
2023-02-05T05:00:13.151Z,102251.13
2023-02-05T05:02:41.132Z,102285.16
2023-02-05T05:05:09.733Z,102279.88
2023-02-05T05:07:37.510Z,102293.19
2023-02-05T05:10:08.205Z,102294.72
2023-02-05T05:12:36.894Z,102275.84
2023-02-05T05:15:05.719Z,102283.75
2023-02-05T05:17:34.534Z,102282.59
2023-02-05T05:20:02.468Z,102291.75
2023-02-05T05:22:30.408Z,102283.78
2023-02-05T05:24:58.391Z,102272.91
2023-02-05T05:27:27.676Z,102127.31
2023-02-05T05:29:55.639Z,102288.63
2023-02-05T05:32:23.621Z,102281.50
2023-02-05T05:34:51.518Z,102283.19
2023-02-05T05:37:19.468Z,102280.94
2023-02-05T05:40:04.812Z,102272.34
2023-02-05T05:42:51.175Z,102238.38
2023-02-05T05:45:19.255Z,102266.81
2023-02-05T05:47:47.196Z,102255.19
2023-02-05T05:50:15.437Z,102258.03
2023-02-05T05:52:43.392Z,102251.78
2023-02-05T05:55:11.248Z,102250.97
2023-02-05T05:57:40.585Z,102234.88
2023-02-05T06:00:09.429Z,102190.66
2023-02-05T06:02:46.051Z,102225.91
2023-02-05T06:05:14.025Z,102223.47
2023-02-05T06:07:41.966Z,102216.28
2023-02-05T06:10:10.140Z,102226.25
2023-02-05T06:12:38.059Z,102218.69
2023-02-05T06:15:08.616Z,102221.19
2023-02-05T06:17:36.557Z,102201.59
2023-02-05T06:20:04.973Z,102207.91
2023-02-05T06:22:32.929Z,102185.47
2023-02-05T06:25:02.264Z,102211.28
2023-02-05T06:27:30.162Z,102219.56
2023-02-05T06:29:58.069Z,102197.41
2023-02-05T06:32:27.224Z,102221.75
2023-02-05T06:34:55.166Z,102224.19
2023-02-05T06:37:34.152Z,102190.16
2023-02-05T06:40:15.880Z,102083.31
2023-02-05T06:42:44.005Z,102054.66
2023-02-05T06:45:12.237Z,102199.50
2023-02-05T06:47:41.480Z,102153.31
2023-02-05T06:50:10.033Z,102198.09
2023-02-05T06:52:38.314Z,102180.97
2023-02-05T06:55:07.034Z,102205.97
2023-02-05T06:57:34.944Z,102115.75
2023-02-05T07:00:02.901Z,102197.84
2023-02-05T07:02:30.877Z,102191.59
2023-02-05T07:05:00.099Z,102193.50
2023-02-05T07:07:28.351Z,102121.72
2023-02-05T07:09:56.287Z,102192.38
2023-02-05T07:12:24.241Z,102196.81
2023-02-05T07:14:52.109Z,102166.50
2023-02-05T07:17:20.897Z,102188.25
2023-02-05T07:19:49.048Z,102191.78
2023-02-05T07:22:18.426Z,102197.91
2023-02-05T07:24:47.520Z,102192.72
2023-02-05T07:27:15.463Z,102197.22
2023-02-05T07:29:43.868Z,102192.81
2023-02-05T07:32:11.971Z,102157.19
2023-02-05T07:34:40.339Z,102088.34
2023-02-05T07:37:08.252Z,102176.22
2023-02-05T07:39:37.601Z,102181.69
2023-02-05T07:42:05.977Z,102183.41
2023-02-05T07:44:42.945Z,102178.09
2023-02-05T07:47:10.909Z,102184.97
2023-02-05T07:49:38.793Z,102179.63
2023-02-05T07:52:07.759Z,102182.00
2023-02-05T07:54:37.144Z,102182.56
2023-02-05T07:57:06.951Z,102180.88
2023-02-05T07:59:35.031Z,101962.06
2023-02-05T08:02:03.257Z,102176.22
2023-02-05T08:04:31.380Z,102132.53
2023-02-05T08:06:59.351Z,102177.34
2023-02-05T08:09:27.336Z,102174.50
2023-02-05T08:11:56.745Z,102118.28
2023-02-05T08:14:24.715Z,102163.25
2023-02-05T08:16:52.972Z,102157.91
2023-02-05T08:19:20.937Z,102090.03
2023-02-05T08:21:48.977Z,102176.06
2023-02-05T08:24:16.962Z,102175.22
2023-02-05T08:26:44.848Z,102163.72
2023-02-05T08:29:14.136Z,102172.56
2023-02-05T08:31:42.240Z,102023.88
2023-02-05T08:34:10.203Z,102151.16
2023-02-05T08:36:38.314Z,102177.06
2023-02-05T08:39:06.281Z,102178.06
2023-02-05T08:41:34.428Z,102138.75
2023-02-05T08:44:02.408Z,102156.84
2023-02-05T08:46:47.310Z,102170.31
2023-02-05T08:49:17.931Z,102189.13
2023-02-05T08:51:45.935Z,102181.13
2023-02-05T08:54:15.287Z,102181.22
2023-02-05T08:56:45.211Z,102180.69
2023-02-05T08:59:13.565Z,102152.91
2023-02-05T09:01:43.531Z,102171.56
2023-02-05T09:04:14.088Z,102168.03
2023-02-05T09:06:42.204Z,102167.22
2023-02-05T09:09:10.026Z,102161.16
2023-02-05T09:11:38.922Z,102163.81
2023-02-05T09:14:07.699Z,102161.09
2023-02-05T09:16:36.118Z,102167.56
2023-02-05T09:19:05.379Z,102172.75
2023-02-05T09:21:33.531Z,102138.88
2023-02-05T09:24:01.495Z,102163.28
2023-02-05T09:26:29.580Z,102158.81
2023-02-05T09:28:57.482Z,102062.22
2023-02-05T09:31:25.599Z,102036.59
2023-02-05T09:33:55.729Z,102054.56
2023-02-05T09:36:25.408Z,102150.34
2023-02-05T09:39:12.001Z,102152.81
2023-02-05T09:41:52.136Z,102124.53
2023-02-05T09:44:33.719Z,102147.06
2023-02-05T09:47:07.206Z,102051.63
2023-02-05T09:49:45.555Z,102147.44
2023-02-05T09:52:20.974Z,102141.31
2023-02-05T09:54:55.731Z,102148.78
2023-02-05T09:57:33.709Z,102143.66
2023-02-05T10:00:02.066Z,102148.50
2023-02-05T10:02:50.161Z,102134.16
2023-02-05T10:05:22.342Z,102117.28
2023-02-05T10:08:00.791Z,102155.88
2023-02-05T10:10:30.276Z,102088.81
2023-02-05T10:13:33.194Z,102162.72
2023-02-05T10:16:16.422Z,102150.06
2023-02-05T10:18:58.649Z,102130.69
2023-02-05T10:21:40.494Z,102121.59
2023-02-05T10:24:27.030Z,102137.75
2023-02-05T10:27:00.667Z,102163.50
2023-02-05T10:29:36.901Z,102099.97
2023-02-05T10:32:17.539Z,102159.19
2023-02-05T10:34:53.823Z,102131.50
2023-02-05T10:37:29.346Z,102092.38
2023-02-05T10:40:00.510Z,102152.25
2023-02-05T10:42:33.774Z,102148.13
2023-02-05T10:45:07.747Z,102157.75
2023-02-05T10:47:54.639Z,102153.91
2023-02-05T10:50:29.531Z,102157.53
2023-02-05T10:52:57.831Z,102134.31
2023-02-05T10:55:27.427Z,102146.25
2023-02-05T10:57:55.496Z,102101.75
2023-02-05T11:00:24.836Z,102164.22
2023-02-05T11:02:55.720Z,102092.50
2023-02-05T11:05:29.512Z,102161.38
2023-02-05T11:07:58.538Z,102165.19
2023-02-05T11:10:29.552Z,102171.53
2023-02-05T11:13:00.445Z,102167.31
2023-02-05T11:15:31.636Z,102161.28
2023-02-05T11:18:01.865Z,102154.19
2023-02-05T11:20:33.111Z,102145.34
2023-02-05T11:23:15.431Z,102137.22
2023-02-05T11:25:53.313Z,102182.53
2023-02-05T11:28:25.088Z,102169.59
2023-02-05T11:30:53.490Z,102178.56
2023-02-05T11:33:28.862Z,102134.09
2023-02-05T11:36:00.295Z,102168.88
2023-02-05T11:38:39.660Z,102190.19
2023-02-05T11:41:11.385Z,102192.06
2023-02-05T11:43:42.176Z,102186.78
2023-02-05T11:46:17.359Z,102185.94
2023-02-05T11:48:52.110Z,102185.09
2023-02-05T11:51:38.616Z,102178.97
2023-02-05T11:54:18.738Z,102172.03
2023-02-05T11:57:02.124Z,102189.56
2023-02-05T11:59:30.242Z,102139.44
2023-02-05T12:02:28.549Z,102195.63
2023-02-05T12:04:59.963Z,102208.91
2023-02-05T12:07:33.127Z,102205.44
2023-02-05T12:10:01.349Z,102201.88
2023-02-05T12:12:39.580Z,102202.53
2023-02-05T12:15:16.476Z,102214.25
2023-02-05T12:17:54.179Z,102221.41
2023-02-05T12:20:27.686Z,102214.44
2023-02-05T12:23:35.466Z,102139.47
2023-02-05T12:26:27.388Z,102217.16
2023-02-05T12:29:08.314Z,102209.94
2023-02-05T12:31:56.298Z,102212.56
2023-02-05T12:34:32.306Z,102165.16
2023-02-05T12:37:18.254Z,102158.88
2023-02-05T12:39:51.531Z,102126.84
2023-02-05T12:42:31.476Z,102216.22
2023-02-05T12:45:25.906Z,102209.19
2023-02-05T12:48:12.877Z,102200.94
2023-02-05T12:50:54.262Z,102185.91
2023-02-05T12:53:36.792Z,102166.53
2023-02-05T12:56:22.260Z,102166.66
2023-02-05T12:58:57.196Z,102164.94
2023-02-05T13:01:34.997Z,102149.50
2023-02-05T13:04:03.844Z,102162.94
2023-02-05T13:06:35.513Z,102170.19
2023-02-05T13:09:07.823Z,102201.66
2023-02-05T13:11:41.533Z,102173.84
2023-02-05T13:14:17.427Z,102189.97
2023-02-05T13:16:49.689Z,102204.16
2023-02-05T13:19:26.793Z,102203.25
2023-02-05T13:22:15.288Z,102162.13
2023-02-05T13:25:08.560Z,102197.91
2023-02-05T13:27:58.824Z,102205.84
2023-02-05T13:30:32.119Z,102188.84
2023-02-05T13:33:05.948Z,102209.44
2023-02-05T13:35:42.543Z,102230.72
2023-02-05T13:38:39.701Z,102228.19
2023-02-05T13:41:25.297Z,102155.78
2023-02-05T13:44:19.231Z,102241.47
2023-02-05T13:47:32.545Z,102243.84
2023-02-05T13:50:32.959Z,102243.03
2023-02-05T13:53:16.624Z,102221.84
2023-02-05T13:56:03.410Z,102227.03
2023-02-05T13:58:35.819Z,102243.91
2023-02-05T14:01:06.995Z,102257.22
2023-02-05T14:03:38.889Z,102251.81
2023-02-05T14:06:17.839Z,102265.88
2023-02-05T14:08:47.273Z,102270.25
2023-02-05T14:11:15.531Z,102256.13
2023-02-05T14:13:43.900Z,102275.53
2023-02-05T14:16:35.114Z,102265.94
2023-02-05T14:19:17.655Z,102252.41
2023-02-05T14:22:03.878Z,102257.78
2023-02-05T14:24:45.997Z,102165.50
2023-02-05T14:27:51.278Z,102288.59
2023-02-05T14:30:48.101Z,102294.63
2023-02-05T14:33:37.884Z,102302.59
2023-02-05T14:36:36.084Z,102300.97
2023-02-05T14:39:07.743Z,102304.38
2023-02-05T14:41:50.966Z,102311.59
2023-02-05T14:44:23.245Z,102296.50
2023-02-05T14:46:59.893Z,102290.72
2023-02-05T14:49:31.967Z,102310.69
2023-02-05T14:52:02.923Z,102277.25
2023-02-05T14:54:34.872Z,102199.44
2023-02-05T14:57:18.676Z,102325.78
2023-02-05T14:59:54.773Z,102320.44
2023-02-05T15:03:02.388Z,102320.28
2023-02-05T15:05:37.847Z,102321.97
2023-02-05T15:08:13.433Z,102286.25
2023-02-05T15:10:49.034Z,102310.59
2023-02-05T15:13:20.866Z,102313.91
2023-02-05T15:16:25.482Z,102333.56
2023-02-05T15:18:56.463Z,102340.31
2023-02-05T15:21:28.604Z,102332.06
2023-02-05T15:24:02.786Z,102342.56
2023-02-05T15:26:40.929Z,102341.63
2023-02-05T15:29:15.353Z,102363.94
2023-02-05T15:31:47.208Z,102362.06
2023-02-05T15:34:32.435Z,102335.22
2023-02-05T15:37:06.476Z,102361.44
2023-02-05T15:39:45.366Z,102328.38
2023-02-05T15:42:19.247Z,102360.56
2023-02-05T15:44:48.869Z,102387.59
2023-02-05T15:47:21.842Z,102391.88
2023-02-05T15:49:52.847Z,102388.50
2023-02-05T15:52:24.664Z,102395.38
2023-02-05T15:54:55.107Z,102352.34
2023-02-05T15:57:27.084Z,102360.28
2023-02-05T15:59:58.464Z,102396.97
2023-02-05T16:02:28.988Z,102345.06
2023-02-05T16:05:00.004Z,102398.28
2023-02-05T16:07:31.125Z,102395.31
2023-02-05T16:10:01.372Z,102326.09
2023-02-05T16:12:30.468Z,102390.63
2023-02-05T16:15:01.606Z,102132.22
2023-02-05T16:17:35.958Z,102405.94
2023-02-05T16:20:15.328Z,102374.66
2023-02-05T16:22:46.578Z,102306.66
2023-02-05T16:25:30.819Z,102363.88
2023-02-05T16:28:03.863Z,102425.44
2023-02-05T16:30:40.576Z,102435.03
2023-02-05T16:33:15.545Z,102438.38
2023-02-05T16:35:48.438Z,102419.63
2023-02-05T16:38:18.850Z,102448.03
2023-02-05T16:40:50.309Z,102443.59
2023-02-05T16:43:26.379Z,102390.19
2023-02-05T16:46:23.472Z,102451.13
2023-02-05T16:48:52.964Z,102456.22
2023-02-05T16:51:35.632Z,102459.13
2023-02-05T16:54:22.732Z,102380.50
2023-02-05T16:56:56.992Z,102482.16
2023-02-05T16:59:27.214Z,102462.63
2023-02-05T17:01:56.566Z,102475.72
2023-02-05T17:04:28.467Z,102458.59
2023-02-05T17:06:59.103Z,102458.72
2023-02-05T17:09:33.183Z,102487.28
2023-02-05T17:12:26.821Z,102468.50
2023-02-05T17:14:57.047Z,102481.31
2023-02-05T17:17:26.310Z,102476.81
2023-02-05T17:20:06.297Z,102478.53
2023-02-05T17:22:35.136Z,102478.09
2023-02-05T17:25:05.599Z,102404.69
2023-02-05T17:27:38.053Z,102428.00
2023-02-05T17:30:11.687Z,102495.34
2023-02-05T17:32:41.205Z,102503.31
2023-02-05T17:35:14.095Z,102509.25
2023-02-05T17:37:41.905Z,102503.19
2023-02-05T17:40:11.096Z,102502.03
2023-02-05T17:42:38.979Z,102503.97
2023-02-05T17:45:16.170Z,102487.59
2023-02-05T17:47:45.610Z,102478.81
2023-02-05T17:50:14.018Z,102519.22
2023-02-05T17:52:42.085Z,102391.16
2023-02-05T17:55:14.751Z,102528.13
2023-02-05T17:57:43.593Z,102524.34
2023-02-05T18:00:15.607Z,102438.97
2023-02-05T18:02:45.063Z,102510.91
2023-02-05T18:05:13.185Z,102539.44
2023-02-05T18:07:43.866Z,102496.34
2023-02-05T18:10:15.302Z,102543.72
2023-02-05T18:12:43.319Z,102422.72
2023-02-05T18:15:12.057Z,102555.06
2023-02-05T18:17:41.107Z,102558.78
2023-02-05T18:20:12.937Z,102483.00
2023-02-05T18:22:40.932Z,102565.34
2023-02-05T18:25:09.978Z,102567.22
2023-02-05T18:27:38.187Z,102558.84
2023-02-05T18:30:07.652Z,102548.19
2023-02-05T18:32:35.559Z,102561.91
2023-02-05T18:35:04.077Z,102544.97
2023-02-05T18:37:33.369Z,102560.22
2023-02-05T18:40:01.233Z,102488.31
2023-02-05T18:42:30.883Z,102583.91
2023-02-05T18:44:58.673Z,102589.09
2023-02-05T18:47:26.582Z,102578.06
2023-02-05T18:49:54.423Z,102513.38
2023-02-05T18:52:22.953Z,102587.66
2023-02-05T18:54:52.740Z,102576.41
2023-02-05T18:57:21.016Z,102572.56
2023-02-05T18:59:49.015Z,102519.63
2023-02-05T19:02:16.965Z,102528.94
2023-02-05T19:04:45.625Z,102602.56
2023-02-05T19:07:13.596Z,102615.00
2023-02-05T19:09:41.610Z,102615.22
2023-02-05T19:12:10.858Z,102626.63
2023-02-05T19:14:38.931Z,102616.78
2023-02-05T19:17:06.905Z,102595.06
2023-02-05T19:19:36.067Z,102622.09
2023-02-05T19:22:06.312Z,102630.00
2023-02-05T19:24:35.302Z,102629.16
2023-02-05T19:27:03.125Z,102617.53
2023-02-05T19:29:38.052Z,102639.59
2023-02-05T19:32:06.770Z,102642.09
2023-02-05T19:34:35.694Z,102637.50
2023-02-05T19:37:03.574Z,102633.75
2023-02-05T19:39:31.686Z,102645.25
2023-02-05T19:41:59.660Z,102644.53
2023-02-05T19:44:29.494Z,102640.59
2023-02-05T19:46:59.137Z,102635.31
2023-02-05T19:49:27.224Z,102641.97
2023-02-05T19:51:56.539Z,102652.38
2023-02-05T19:54:24.482Z,102652.25
2023-02-05T19:56:52.807Z,102652.84
2023-02-05T19:59:21.146Z,102658.91
2023-02-05T20:01:50.116Z,102668.63
2023-02-05T20:04:24.254Z,102675.91
2023-02-05T20:06:56.571Z,102675.66
2023-02-05T20:09:24.639Z,102677.81
2023-02-05T20:11:54.583Z,102678.69
2023-02-05T20:14:24.002Z,102650.72
2023-02-05T20:16:52.790Z,102667.78
2023-02-05T20:19:22.677Z,102666.94
2023-02-05T20:21:51.152Z,102644.28
2023-02-05T20:24:19.131Z,102692.63
2023-02-05T20:26:48.765Z,102563.47
2023-02-05T20:29:34.929Z,102698.13
2023-02-05T20:32:02.947Z,102686.44
2023-02-05T20:34:35.332Z,102686.44
2023-02-05T20:37:05.957Z,102689.44
2023-02-05T20:39:35.413Z,102688.34
2023-02-05T20:42:03.640Z,102692.16
2023-02-05T20:44:36.193Z,102691.91
2023-02-05T20:47:04.516Z,102689.28
2023-02-05T20:49:35.213Z,102692.59
2023-02-05T20:52:03.159Z,102604.91
2023-02-05T20:54:31.593Z,102687.38
2023-02-05T20:57:00.358Z,102530.31
2023-02-05T20:59:29.064Z,102696.56
2023-02-05T21:01:57.101Z,102703.41
2023-02-05T21:04:25.518Z,102698.72
2023-02-05T21:06:55.076Z,102688.72
2023-02-05T21:09:23.360Z,102704.91
2023-02-05T21:11:55.311Z,102481.56
2023-02-05T21:14:23.518Z,102667.50
2023-02-05T21:16:51.718Z,102696.88
2023-02-05T21:19:19.878Z,102704.00
2023-02-05T21:21:50.328Z,102677.69
2023-02-05T21:24:20.768Z,102711.59
2023-02-05T21:26:50.674Z,102705.66
2023-02-05T21:29:20.658Z,102710.59
2023-02-05T21:31:50.650Z,102677.38
2023-02-05T21:34:21.774Z,102626.78
2023-02-05T21:36:50.761Z,102722.44
2023-02-05T21:39:20.555Z,102720.38
2023-02-05T21:41:50.505Z,102718.44
2023-02-05T21:44:19.223Z,102698.78
2023-02-05T21:46:47.210Z,102723.72
2023-02-05T21:49:15.576Z,102733.25
2023-02-05T21:51:43.640Z,102734.22
2023-02-05T21:54:13.248Z,102726.28
2023-02-05T21:56:44.140Z,102731.56
2023-02-05T21:59:15.477Z,102746.78
2023-02-05T22:01:43.753Z,102752.31
2023-02-05T22:04:13.831Z,102762.78
2023-02-05T22:06:42.238Z,102766.16
2023-02-05T22:09:12.084Z,102749.09
2023-02-05T22:11:40.628Z,102723.63
2023-02-05T22:14:10.889Z,102764.75
2023-02-05T22:16:39.388Z,102759.75
2023-02-05T22:19:07.982Z,102765.88
2023-02-05T22:21:38.072Z,102754.97
2023-02-05T22:24:08.028Z,102637.72
2023-02-05T22:26:38.808Z,102734.84
2023-02-05T22:29:10.061Z,102784.72
2023-02-05T22:31:38.166Z,102746.72
2023-02-05T22:34:06.755Z,102788.09
2023-02-05T22:36:36.352Z,102744.22
2023-02-05T22:39:06.098Z,102673.28
2023-02-05T22:41:36.040Z,102785.06
2023-02-05T22:44:05.735Z,102782.28
2023-02-05T22:46:38.795Z,102784.94
2023-02-05T22:49:06.794Z,102789.44
2023-02-05T22:51:37.021Z,102786.69
2023-02-05T22:54:05.442Z,102782.56
2023-02-05T22:56:34.088Z,102782.22
2023-02-05T22:59:03.571Z,102783.13
2023-02-05T23:01:35.165Z,102770.50
2023-02-05T23:04:05.384Z,102760.94
2023-02-05T23:06:34.016Z,102755.56
2023-02-05T23:09:04.335Z,102762.56
2023-02-05T23:11:33.537Z,102759.75
2023-02-05T23:14:02.152Z,102760.19
2023-02-05T23:16:32.496Z,102665.38
2023-02-05T23:19:04.746Z,102751.75
2023-02-05T23:21:35.604Z,102709.34
2023-02-05T23:24:04.402Z,102743.22
2023-02-05T23:26:33.512Z,102746.66
2023-02-05T23:29:01.778Z,102725.81
2023-02-05T23:31:30.645Z,102654.53
2023-02-05T23:33:58.932Z,102756.91
2023-02-05T23:36:28.257Z,102772.59
2023-02-05T23:38:56.162Z,102760.19
2023-02-05T23:41:36.679Z,102686.59
2023-02-05T23:44:06.873Z,102701.59
2023-02-05T23:46:35.503Z,102761.81
2023-02-05T23:49:03.641Z,102763.22
2023-02-05T23:51:33.630Z,102768.88
2023-02-05T23:54:03.558Z,102772.59
2023-02-05T23:56:31.592Z,102772.22
2023-02-05T23:59:00.165Z,102771.03
